Time;durP1;ratioP1;P1;durP2;ratioP2;P2;SDS_P1;SDS_P2;PMS_P1;PMS_P2;Temp;Humidity;BMP_temperature;BMP_pressure;BME280_temperature;BME280_humidity;BME280_pressure;Samples;Min_cycle;Max_cycle;Signal;HPM_P1;HPM_P2
2022/07/10 00:01:40;;;;;;;0.60;0.60;;;21.10;99.90;;;;;;5028966;28;20611;-77
2022/07/10 00:04:07;;;;;;;0.90;0.90;;;21.10;99.90;;;;;;5029143;28;20241;-79
2022/07/10 00:06:34;;;;;;;0.60;0.60;;;21.20;99.90;;;;;;5028012;28;20208;-77
2022/07/10 00:09:01;;;;;;;0.60;0.60;;;21.30;99.90;;;;;;5031469;28;20219;-76
2022/07/10 00:14:52;;;;;;;1.75;0.80;;;21.30;99.90;;;;;;5024850;28;20218;-77
2022/07/10 00:17:19;;;;;;;0.80;0.80;;;21.30;99.90;;;;;;5022011;28;20191;-76
2022/07/10 00:19:46;;;;;;;0.98;0.93;;;21.10;99.90;;;;;;5024267;28;20318;-75
2022/07/10 00:22:13;;;;;;;0.90;0.80;;;21.10;99.90;;;;;;5021148;28;20224;-75
2022/07/10 00:24:40;;;;;;;0.80;0.75;;;21.00;99.90;;;;;;5021603;28;20230;-76
2022/07/10 00:27:07;;;;;;;0.60;0.50;;;21.00;99.90;;;;;;5029547;28;20273;-75
2022/07/10 00:32:59;;;;;;;0.80;0.80;;;21.00;99.90;;;;;;5025414;28;20740;-76
2022/07/10 00:35:26;;;;;;;0.93;0.85;;;20.90;99.90;;;;;;5023154;28;20243;-76
2022/07/10 00:37:53;;;;;;;0.82;0.82;;;20.90;99.90;;;;;;5025162;28;20225;-75
2022/07/10 00:43:58;;;;;;;0.80;0.80;;;20.70;99.90;;;;;;5029494;28;20243;-75
2022/07/10 00:46:26;;;;;;;0.75;0.75;;;20.60;99.90;;;;;;5021817;28;20203;-75
2022/07/10 00:48:55;;;;;;;1.15;0.90;;;20.60;99.90;;;;;;5019279;28;20215;-75
2022/07/10 00:54:57;;;;;;;1.27;0.90;;;20.50;99.90;;;;;;5029599;28;20215;-75
2022/07/10 00:57:24;;;;;;;0.80;0.80;;;20.40;99.90;;;;;;5022988;28;20209;-76
2022/07/10 00:59:52;;;;;;;1.08;0.93;;;20.40;99.90;;;;;;5021315;28;20226;-76
2022/07/10 01:02:19;;;;;;;0.82;0.82;;;20.40;99.90;;;;;;5025212;28;20285;-75
2022/07/10 01:04:47;;;;;;;1.05;1.00;;;20.40;99.90;;;;;;5031052;28;20314;-75
2022/07/10 01:07:15;;;;;;;1.38;0.90;;;20.40;99.90;;;;;;5023678;28;20589;-75
2022/07/10 01:10:02;;;;;;;2.15;1.10;;;20.30;99.90;;;;;;5027057;28;20294;-74
2022/07/10 01:12:29;;;;;;;1.45;0.98;;;20.30;99.90;;;;;;5018647;28;20261;-77
2022/07/10 01:14:56;;;;;;;1.63;1.10;;;20.30;99.90;;;;;;5025397;28;20564;-75
2022/07/10 01:17:24;;;;;;;1.10;1.00;;;20.30;99.90;;;;;;5022572;28;20199;-75
2022/07/10 01:19:52;;;;;;;1.00;1.00;;;20.30;99.90;;;;;;5021843;28;20254;-75
2022/07/10 01:22:21;;;;;;;1.20;1.10;;;20.20;99.90;;;;;;5021365;28;20317;-75
2022/07/10 01:24:48;;;;;;;1.00;0.90;;;20.20;99.90;;;;;;5025744;28;20226;-76
2022/07/10 01:27:15;;;;;;;1.02;1.02;;;20.20;99.90;;;;;;5027118;28;20254;-75
2022/07/10 01:29:43;;;;;;;0.95;0.90;;;20.20;99.90;;;;;;5027525;28;20219;-75
2022/07/10 01:32:10;;;;;;;1.15;0.95;;;20.10;99.90;;;;;;5030395;28;20214;-77
2022/07/10 01:34:37;;;;;;;1.35;1.08;;;20.10;99.90;;;;;;5019334;28;20215;-74
2022/07/10 01:40:28;;;;;;;1.05;1.00;;;19.90;99.90;;;;;;5022917;28;20242;-75
2022/07/10 01:42:55;;;;;;;1.63;1.10;;;19.80;99.90;;;;;;5024097;28;20251;-76
2022/07/10 01:45:22;;;;;;;1.05;1.00;;;19.80;99.90;;;;;;5024143;28;20199;-74
2022/07/10 01:47:49;;;;;;;1.17;1.08;;;19.70;99.90;;;;;;5019544;28;20195;-77
2022/07/10 01:50:16;;;;;;;1.00;1.00;;;19.60;99.90;;;;;;5025736;28;20207;-75
2022/07/10 01:52:43;;;;;;;1.17;1.00;;;19.50;99.90;;;;;;5028825;28;20220;-74
2022/07/10 01:58:34;;;;;;;0.82;0.82;;;19.60;99.90;;;;;;5023135;28;20305;-76
2022/07/10 02:01:01;;;;;;;0.85;0.85;;;19.60;99.90;;;;;;5023089;28;20204;-75
2022/07/10 02:06:13;;;;;;;2.17;1.00;;;19.70;99.90;;;;;;5024262;28;20262;-78
2022/07/10 02:08:40;;;;;;;1.20;1.10;;;19.80;99.90;;;;;;5024649;28;20228;-74
2022/07/10 02:11:07;;;;;;;1.13;1.00;;;19.70;99.90;;;;;;5025899;28;20208;-75
2022/07/10 02:13:35;;;;;;;1.00;1.00;;;19.70;99.90;;;;;;5016092;28;20641;-77
2022/07/10 02:16:03;;;;;;;1.02;1.00;;;19.60;99.90;;;;;;5021709;28;20573;-77
2022/07/10 02:18:30;;;;;;;1.50;1.40;;;19.50;99.90;;;;;;5025858;28;20219;-75
2022/07/10 02:20:57;;;;;;;1.25;1.15;;;19.40;99.90;;;;;;5028141;28;20203;-74
2022/07/10 02:26:46;;;;;;;1.38;1.00;;;19.50;99.90;;;;;;5026421;28;20199;-75
2022/07/10 02:29:15;;;;;;;1.95;1.08;;;19.50;99.90;;;;;;5032695;28;20573;-78
2022/07/10 02:31:42;;;;;;;1.00;1.00;;;19.50;99.90;;;;;;5021644;28;20208;-77
2022/07/10 02:34:09;;;;;;;1.52;1.42;;;19.40;99.90;;;;;;5028212;28;20605;-77
2022/07/10 02:39:58;;;;;;;1.30;1.20;;;19.20;99.90;;;;;;5022952;28;20210;-77
2022/07/10 02:42:25;;;;;;;0.90;0.90;;;19.30;99.90;;;;;;5028373;28;20463;-75
2022/07/10 02:44:54;;;;;;;2.05;1.15;;;19.30;99.90;;;;;;5028082;28;20272;-75
2022/07/10 02:50:42;;;;;;;1.20;1.20;;;19.30;99.90;;;;;;5024281;28;20258;-75
2022/07/10 02:56:31;;;;;;;1.30;1.20;;;19.30;99.90;;;;;;5030943;28;20250;-78
2022/07/10 02:59:42;;;;;;;0.90;0.90;;;19.30;99.90;;;;;;5040591;28;20584;-77
2022/07/10 03:02:10;;;;;;;1.10;1.10;;;19.30;99.90;;;;;;5034833;28;20649;-77
2022/07/10 03:07:59;;;;;;;1.10;1.00;;;19.40;99.90;;;;;;5029412;28;20234;-77
2022/07/10 03:10:27;;;;;;;1.02;1.02;;;19.40;99.90;;;;;;5039333;28;20211;-78
2022/07/10 03:12:54;;;;;;;0.90;0.90;;;19.40;99.90;;;;;;5034849;28;20235;-78
2022/07/10 03:25:28;;;;;;;1.25;1.20;;;19.50;99.90;;;;;;5035655;28;20236;-77
2022/07/10 03:27:55;;;;;;;1.27;1.23;;;19.60;99.90;;;;;;5020006;28;20701;-78
2022/07/10 03:30:22;;;;;;;1.30;1.10;;;19.60;99.90;;;;;;5042523;28;20681;-77
2022/07/10 03:32:49;;;;;;;1.27;1.17;;;19.60;99.90;;;;;;5036402;28;20626;-77
2022/07/10 03:42:11;;;;;;;1.00;1.00;;;19.70;99.90;;;;;;5032952;28;20175;-77
2022/07/10 03:44:38;;;;;;;0.77;0.77;;;19.70;99.90;;;;;;5030280;28;20585;-77
2022/07/10 03:47:05;;;;;;;1.30;1.00;;;19.70;99.90;;;;;;5037815;28;20201;-77
2022/07/10 03:59:39;;;;;;;1.30;1.20;;;19.80;99.90;;;;;;5018408;28;20716;-77
2022/07/10 04:02:06;;;;;;;1.00;1.00;;;19.70;99.90;;;;;;5028392;28;20211;-78
2022/07/10 04:04:33;;;;;;;1.10;1.02;;;19.70;99.90;;;;;;5026297;28;20236;-77
2022/07/10 04:07:00;;;;;;;1.00;1.00;;;19.80;99.90;;;;;;5024464;28;20196;-77
2022/07/10 04:09:27;;;;;;;1.52;1.08;;;19.80;99.90;;;;;;5029235;28;20227;-78
2022/07/10 04:11:55;;;;;;;1.40;1.30;;;19.60;99.90;;;;;;5033861;28;20658;-77
2022/07/10 04:14:22;;;;;;;1.52;1.27;;;19.50;99.90;;;;;;5031537;28;20223;-77
2022/07/10 04:16:50;;;;;;;1.00;1.00;;;19.30;99.90;;;;;;5033750;28;20214;-77
2022/07/10 04:19:18;;;;;;;2.28;1.40;;;19.30;99.90;;;;;;5033554;28;20219;-77
2022/07/10 04:21:45;;;;;;;1.50;1.40;;;19.30;99.90;;;;;;5034402;28;20230;-77
2022/07/10 04:24:12;;;;;;;1.13;1.13;;;19.30;99.90;;;;;;5033311;28;20281;-77
2022/07/10 04:30:01;;;;;;;3.83;1.40;;;19.30;99.90;;;;;;5035007;28;20214;-77
2022/07/10 04:32:29;;;;;;;1.30;1.13;;;19.30;99.90;;;;;;5033650;28;20202;-76
2022/07/10 04:34:56;;;;;;;1.20;1.10;;;19.30;99.90;;;;;;5027055;28;20223;-76
2022/07/10 04:38:12;;;;;;;1.40;1.30;;;19.30;99.90;;;;;;5028465;28;20203;-77
2022/07/10 04:40:39;;;;;;;1.45;1.35;;;19.30;99.90;;;;;;5038107;28;20678;-77
2022/07/10 04:43:06;;;;;;;1.50;1.40;;;19.30;99.90;;;;;;5048948;28;20231;-77
2022/07/10 04:45:33;;;;;;;1.13;1.13;;;19.30;99.90;;;;;;5033686;28;20207;-76
2022/07/10 04:48:02;;;;;;;1.77;1.40;;;19.30;99.90;;;;;;5033538;28;20196;-77
2022/07/10 04:50:30;;;;;;;2.90;1.60;;;19.20;99.90;;;;;;5035959;28;20204;-75
2022/07/10 04:52:57;;;;;;;1.40;1.30;;;19.20;99.90;;;;;;5037407;28;20297;-77
2022/07/10 04:55:24;;;;;;;1.55;1.40;;;19.10;99.90;;;;;;5035136;28;20682;-76
2022/07/10 04:57:51;;;;;;;1.60;1.50;;;18.90;99.90;;;;;;5030527;28;20609;-76
2022/07/10 05:00:18;;;;;;;1.48;1.35;;;18.80;99.90;;;;;;5033198;28;20713;-77
2022/07/10 05:02:45;;;;;;;1.77;1.40;;;18.70;99.90;;;;;;5033600;28;20596;-78
2022/07/10 05:05:14;;;;;;;1.40;1.30;;;18.80;99.90;;;;;;5026909;28;20290;-78
2022/07/10 05:07:41;;;;;;;1.27;1.27;;;18.90;99.90;;;;;;5030728;28;20204;-77
2022/07/10 05:10:09;;;;;;;1.25;1.20;;;19.00;99.90;;;;;;5029269;28;20215;-77
2022/07/10 05:12:36;;;;;;;1.48;1.38;;;19.20;99.90;;;;;;5033492;28;20204;-77
2022/07/10 05:15:04;;;;;;;1.20;1.15;;;19.20;99.90;;;;;;5032293;28;20219;-78
2022/07/10 05:17:31;;;;;;;2.08;1.15;;;19.30;99.90;;;;;;5033375;28;20200;-77
2022/07/10 05:19:58;;;;;;;1.30;1.20;;;19.50;99.90;;;;;;5032720;28;20756;-77
2022/07/10 05:22:27;;;;;;;2.08;1.38;;;19.70;99.90;;;;;;5033390;28;20195;-78
2022/07/10 05:24:54;;;;;;;1.25;1.15;;;19.90;99.90;;;;;;5041319;28;20219;-77
2022/07/10 05:27:21;;;;;;;1.70;1.38;;;20.10;99.90;;;;;;5041935;28;20191;-77
2022/07/10 05:29:48;;;;;;;1.42;1.30;;;20.30;99.90;;;;;;5031404;28;20220;-77
2022/07/10 05:32:15;;;;;;;1.60;1.50;;;20.40;99.90;;;;;;5032997;28;20199;-77
2022/07/10 05:34:43;;;;;;;1.48;1.38;;;20.50;99.90;;;;;;5032435;28;20215;-77
2022/07/10 05:37:10;;;;;;;3.45;1.50;;;20.50;99.90;;;;;;5040147;28;20191;-78
2022/07/10 05:39:38;;;;;;;1.50;1.40;;;20.60;99.90;;;;;;5032640;28;20226;-77
2022/07/10 05:42:06;;;;;;;1.45;1.35;;;20.60;99.90;;;;;;5033501;28;20198;-77
2022/07/10 05:44:33;;;;;;;1.70;1.38;;;20.60;99.90;;;;;;5032344;28;20232;-77
2022/07/10 05:47:00;;;;;;;1.70;1.60;;;20.60;99.90;;;;;;5040961;28;20191;-77
2022/07/10 05:49:27;;;;;;;1.60;1.50;;;20.60;99.90;;;;;;5034039;28;20224;-76
2022/07/10 05:51:54;;;;;;;1.50;1.40;;;20.60;99.90;;;;;;5033468;28;20250;-76
2022/07/10 05:54:21;;;;;;;4.72;1.63;;;20.70;99.90;;;;;;5026208;28;20219;-76
2022/07/10 05:56:51;;;;;;;1.48;1.38;;;20.80;99.90;;;;;;5043161;28;20223;-80
2022/07/10 05:59:18;;;;;;;1.48;1.33;;;20.90;99.90;;;;;;5028009;28;20659;-77
2022/07/10 06:01:45;;;;;;;1.48;1.38;;;21.00;99.90;;;;;;5038816;28;20216;-78
2022/07/10 06:04:12;;;;;;;1.40;1.30;;;21.10;99.90;;;;;;5032137;28;20219;-77
2022/07/10 06:06:39;;;;;;;1.52;1.30;;;21.20;99.90;;;;;;5050101;28;20200;-77
2022/07/10 06:09:06;;;;;;;4.78;1.30;;;21.40;99.90;;;;;;5039059;28;20223;-77
2022/07/10 06:11:33;;;;;;;2.55;1.50;;;21.50;99.90;;;;;;5031013;28;20203;-77
2022/07/10 06:14:02;;;;;;;1.73;1.30;;;21.70;99.90;;;;;;5032618;28;20596;-76
2022/07/10 06:16:29;;;;;;;1.50;1.40;;;21.90;99.90;;;;;;5035177;28;20199;-77
2022/07/10 06:18:56;;;;;;;1.77;1.60;;;22.00;99.90;;;;;;5041832;28;20221;-77
2022/07/10 06:21:23;;;;;;;1.52;1.42;;;22.10;99.90;;;;;;5038679;28;20196;-77
2022/07/10 06:23:51;;;;;;;1.45;1.30;;;22.20;99.90;;;;;;5035921;28;20223;-77
2022/07/10 06:26:18;;;;;;;1.50;1.40;;;22.20;99.90;;;;;;5036700;28;20195;-77
2022/07/10 06:28:45;;;;;;;1.52;1.42;;;22.30;99.90;;;;;;5035188;28;20216;-77
2022/07/10 06:31:14;;;;;;;1.48;1.38;;;22.30;99.90;;;;;;5028732;28;20570;-77
2022/07/10 06:33:41;;;;;;;1.65;1.45;;;22.40;99.90;;;;;;5026932;28;20230;-77
2022/07/10 06:36:08;;;;;;;1.95;1.73;;;22.50;99.90;;;;;;5036373;28;20239;-77
2022/07/10 06:38:35;;;;;;;1.50;1.40;;;22.60;99.90;;;;;;5035739;28;20226;-77
2022/07/10 06:41:02;;;;;;;2.10;1.77;;;22.70;99.90;;;;;;5029471;28;20192;-78
2022/07/10 06:43:30;;;;;;;2.72;1.58;;;22.80;99.90;;;;;;5036773;28;20254;-79
2022/07/10 06:45:57;;;;;;;2.15;1.45;;;22.80;99.90;;;;;;5041151;28;20227;-77
2022/07/10 06:48:26;;;;;;;2.03;1.33;;;22.90;99.90;;;;;;5035699;28;20600;-77
2022/07/10 06:50:54;;;;;;;2.38;1.50;;;23.00;99.90;;;;;;5036552;28;20222;-77
2022/07/10 06:53:23;;;;;;;1.55;1.45;;;23.20;99.90;;;;;;5035935;28;20219;-77
2022/07/10 06:55:51;;;;;;;1.42;1.33;;;23.30;99.90;;;;;;5032735;28;20655;-77
2022/07/10 06:58:18;;;;;;;1.50;1.38;;;23.30;99.90;;;;;;5016734;28;20246;-77
2022/07/10 07:00:45;;;;;;;2.22;1.70;;;23.30;99.90;;;;;;5035848;28;20204;-77
2022/07/10 07:03:13;;;;;;;3.42;1.67;;;23.40;99.90;;;;;;5035112;28;20216;-78
2022/07/10 07:05:44;;;;;;;1.92;1.50;;;23.40;99.90;;;;;;5037928;28;20207;-78
2022/07/10 07:08:13;;;;;;;3.33;1.48;;;23.40;99.90;;;;;;5028296;28;20192;-77
2022/07/10 07:10:40;;;;;;;3.90;1.50;;;23.50;99.90;;;;;;5030572;28;20295;-78
2022/07/10 07:13:09;;;;;;;1.67;1.58;;;23.40;99.90;;;;;;5035526;28;20218;-77
2022/07/10 07:15:39;;;;;;;1.95;1.50;;;23.50;99.90;;;;;;5041742;28;20192;-77
2022/07/10 07:18:12;;;;;;;1.27;1.17;;;23.60;99.90;;;;;;5037859;28;20183;-77
2022/07/10 07:23:25;;;;;;;1.85;1.67;;;23.80;99.90;;;;;;5025324;28;20318;-77
2022/07/10 07:25:53;;;;;;;1.30;1.20;;;23.80;99.90;;;;;;5039710;28;20305;-77
2022/07/10 07:28:20;;;;;;;1.63;1.45;;;23.80;99.90;;;;;;5035346;28;20225;-77
2022/07/10 07:40:55;;;;;;;1.40;1.30;;;24.80;99.90;;;;;;5029696;28;20203;-77
2022/07/10 07:43:22;;;;;;;2.00;1.80;;;24.80;99.90;;;;;;5034256;28;20242;-77
2022/07/10 07:45:49;;;;;;;3.63;1.60;;;25.00;99.90;;;;;;5034765;28;20218;-77
2022/07/10 07:48:16;;;;;;;1.60;1.48;;;25.10;99.90;;;;;;5041681;28;20202;-77
2022/07/10 07:50:43;;;;;;;1.88;1.50;;;25.10;99.90;;;;;;5042429;28;20199;-77
2022/07/10 07:53:11;;;;;;;2.72;1.40;;;25.10;99.90;;;;;;5034531;28;20211;-77
2022/07/10 07:55:39;;;;;;;1.35;1.25;;;25.00;99.90;;;;;;5028439;28;20674;-77
2022/07/10 07:58:08;;;;;;;1.92;1.35;;;25.00;99.90;;;;;;5040433;28;20688;-77
2022/07/10 08:00:35;;;;;;;2.85;1.67;;;25.10;99.90;;;;;;5035319;28;20183;-77
2022/07/10 08:03:02;;;;;;;1.50;1.40;;;25.10;99.90;;;;;;5034591;28;20223;-77
2022/07/10 08:05:29;;;;;;;1.40;1.30;;;25.20;99.90;;;;;;5032803;28;20219;-78
2022/07/10 08:07:58;;;;;;;1.92;1.40;;;25.20;99.90;;;;;;5034826;28;20192;-77
2022/07/10 08:10:27;;;;;;;1.55;1.40;;;25.20;99.90;;;;;;5036149;28;20215;-77
2022/07/10 08:12:54;;;;;;;1.50;1.40;;;25.50;99.90;;;;;;5049189;28;20208;-77
2022/07/10 08:15:23;;;;;;;1.55;1.33;;;25.70;99.90;;;;;;5033481;28;20219;-77
2022/07/10 08:17:51;;;;;;;3.03;1.50;;;25.90;99.90;;;;;;5048635;28;20198;-77
2022/07/10 08:20:18;;;;;;;3.50;1.35;;;26.00;99.90;;;;;;5038625;28;20274;-77
2022/07/10 08:22:46;;;;;;;2.10;1.50;;;26.00;99.90;;;;;;5035815;28;20222;-77
2022/07/10 08:25:13;;;;;;;1.00;1.00;;;26.00;99.90;;;;;;5026756;28;20259;-76
2022/07/10 08:27:40;;;;;;;1.80;1.42;;;26.00;99.90;;;;;;5035479;28;20200;-77
2022/07/10 08:30:09;;;;;;;2.50;1.50;;;26.10;99.90;;;;;;5034216;28;20227;-77
2022/07/10 08:32:38;;;;;;;1.63;1.40;;;26.20;99.90;;;;;;5035094;28;20246;-77
2022/07/10 08:35:06;;;;;;;1.50;1.23;;;26.20;99.90;;;;;;5034854;28;20234;-78
2022/07/10 08:37:38;;;;;;;1.90;1.50;;;26.40;99.90;;;;;;5034902;28;20203;-77
2022/07/10 08:40:07;;;;;;;1.40;1.30;;;26.40;99.90;;;;;;5035050;28;20285;-77
2022/07/10 08:42:34;;;;;;;1.30;1.20;;;26.50;99.90;;;;;;5035444;28;20562;-77
2022/07/10 08:45:01;;;;;;;2.25;1.52;;;26.50;99.90;;;;;;5040203;28;20219;-77
2022/07/10 08:47:31;;;;;;;1.52;1.42;;;26.70;99.90;;;;;;5052752;28;20222;-78
2022/07/10 08:49:59;;;;;;;3.38;1.55;;;26.60;99.90;;;;;;5033975;28;20235;-77
2022/07/10 08:52:29;;;;;;;2.38;1.70;;;26.60;99.90;;;;;;5034453;28;20202;-78
2022/07/10 08:54:57;;;;;;;1.52;1.35;;;26.10;99.90;;;;;;5044474;23;20738;-75
2022/07/10 09:00:45;;;;;;;4.18;1.50;;;25.80;99.90;;;;;;4977605;28;20211;-76
2022/07/10 09:03:12;;;;;;;1.95;1.35;;;26.00;99.90;;;;;;4979303;28;20193;-78
2022/07/10 09:05:44;;;;;;;4.05;1.40;;;26.20;99.90;;;;;;4982553;28;20228;-76
2022/07/10 09:08:23;;;;;;;1.38;1.27;;;26.30;99.90;;;;;;4974995;28;20233;-77
2022/07/10 09:10:53;;;;;;;1.35;1.20;;;26.50;99.90;;;;;;4980633;28;20270;-75
2022/07/10 09:13:20;;;;;;;1.48;1.23;;;26.20;99.90;;;;;;4977199;28;20237;-77
2022/07/10 09:15:50;;;;;;;1.30;1.20;;;25.70;99.90;;;;;;4982821;28;20193;-76
2022/07/10 09:22:12;;;;;;;1.20;1.10;;;25.90;99.90;;;;;;4989126;28;20260;-76
2022/07/10 09:28:05;;;;;;;1.20;1.10;;;26.20;99.90;;;;;;4994335;28;20189;-78
2022/07/10 09:33:57;;;;;;;1.60;1.10;;;27.20;99.90;;;;;;4987464;28;20878;-78
2022/07/10 09:36:24;;;;;;;1.40;1.00;;;27.70;99.90;;;;;;4980638;28;20200;-78
2022/07/10 09:39:43;;;;;;;3.10;1.15;;;28.10;99.90;;;;;;4983851;28;20718;-79
2022/07/10 09:42:26;;;;;;;0.80;0.80;;;28.10;99.90;;;;;;4982959;28;20204;-78
2022/07/10 09:44:53;;;;;;;1.33;0.93;;;28.20;99.90;;;;;;4985864;28;20300;-76
2022/07/10 09:47:23;;;;;;;1.35;0.95;;;28.30;99.90;;;;;;4987721;28;20210;-78
2022/07/10 09:49:50;;;;;;;1.00;1.00;;;27.80;99.90;;;;;;4989032;28;20248;-79
2022/07/10 09:52:22;;;;;;;1.17;1.08;;;27.80;99.90;;;;;;4999309;28;20209;-79
2022/07/10 09:54:49;;;;;;;2.50;1.13;;;27.80;99.90;;;;;;4991111;28;20221;-79
2022/07/10 09:57:47;;;;;;;1.00;1.00;;;28.10;99.90;;;;;;4988837;28;20201;-79
2022/07/10 10:00:15;;;;;;;1.10;1.00;;;28.30;99.90;;;;;;4995881;28;20232;-78
2022/07/10 10:02:42;;;;;;;1.00;1.00;;;28.40;99.90;;;;;;4989835;28;20204;-76
2022/07/10 10:05:10;;;;;;;2.13;1.00;;;28.60;99.90;;;;;;4991898;28;20296;-78
2022/07/10 10:07:39;;;;;;;1.48;0.85;;;28.30;99.90;;;;;;4993371;28;20204;-79
2022/07/10 10:13:42;;;;;;;0.88;0.88;;;27.70;99.90;;;;;;4982957;28;20281;-77
2022/07/10 10:16:34;;;;;;;1.23;0.82;;;27.20;99.90;;;;;;4993225;28;20213;-77
2022/07/10 10:21:47;;;;;;;0.82;0.82;;;27.00;99.90;;;;;;4988983;28;20232;-78
2022/07/10 10:24:15;;;;;;;0.80;0.80;;;27.00;99.90;;;;;;4995018;28;20220;-77
2022/07/10 10:33:46;;;;;;;0.80;0.80;;;27.00;99.90;;;;;;4992910;28;20230;-75
2022/07/10 10:36:17;;;;;;;0.80;0.80;;;27.30;99.90;;;;;;4991444;28;20607;-75
2022/07/10 10:39:10;;;;;;;1.10;1.00;;;27.40;99.90;;;;;;4994064;28;20221;-75
2022/07/10 10:41:39;;;;;;;0.88;0.88;;;27.50;99.90;;;;;;4989233;28;20239;-76
2022/07/10 10:44:35;;;;;;;1.85;0.80;;;27.50;99.90;;;;;;4993805;28;20220;-77
2022/07/10 10:47:07;;;;;;;1.77;0.73;;;28.10;99.90;;;;;;4991150;28;20193;-77
2022/07/10 10:49:54;;;;;;;0.82;0.82;;;28.10;99.90;;;;;;4994107;28;20221;-77
2022/07/10 10:56:21;;;;;;;0.93;0.90;;;27.70;99.90;;;;;;4990884;28;20264;-78
2022/07/10 10:58:48;;;;;;;0.82;0.82;;;27.60;99.90;;;;;;4988523;28;20217;-78
2022/07/10 11:01:27;;;;;;;0.98;0.90;;;27.60;99.90;;;;;;4990512;28;20197;-77
2022/07/10 11:04:17;;;;;;;0.90;0.90;;;27.50;99.90;;;;;;4993998;28;20603;-77
2022/07/10 11:17:09;;;;;;;1.38;0.93;;;27.40;99.90;;;;;;4995250;28;20219;-77
2022/07/10 11:19:36;;;;;;;1.10;1.00;;;27.30;99.90;;;;;;4992502;28;20249;-77
2022/07/10 11:22:29;;;;;;;0.80;0.80;;;27.20;99.90;;;;;;4990120;28;20271;-77
2022/07/10 11:25:14;;;;;;;0.98;0.85;;;27.30;99.90;;;;;;4988303;28;20244;-76
2022/07/10 11:28:07;;;;;;;0.80;0.80;;;27.40;99.90;;;;;;4979468;28;20204;-77
2022/07/10 11:30:56;;;;;;;0.77;0.77;;;27.30;99.90;;;;;;4992649;28;20217;-78
2022/07/10 11:33:24;;;;;;;1.48;1.05;;;27.20;99.90;;;;;;4993519;28;20624;-76
2022/07/10 11:35:53;;;;;;;1.00;0.90;;;27.10;99.90;;;;;;4988714;28;20201;-77
2022/07/10 11:38:21;;;;;;;0.70;0.70;;;27.00;99.90;;;;;;4990035;28;20227;-76
2022/07/10 11:40:49;;;;;;;1.88;1.08;;;26.90;99.90;;;;;;4994145;28;20197;-77
2022/07/10 11:43:19;;;;;;;1.55;1.00;;;26.80;99.90;;;;;;4993166;28;20201;-77
2022/07/10 11:45:46;;;;;;;1.25;1.00;;;26.70;99.90;;;;;;4987081;28;20295;-78
2022/07/10 11:48:21;;;;;;;0.98;0.90;;;26.70;99.90;;;;;;4993084;28;20212;-76
2022/07/10 11:54:13;;;;;;;0.73;0.73;;;26.90;99.90;;;;;;4990131;28;20283;-77
2022/07/10 11:56:42;;;;;;;1.23;0.80;;;26.90;99.90;;;;;;4985762;28;20351;-77
2022/07/10 12:05:53;;;;;;;1.02;1.00;;;28.00;99.90;;;;;;4987348;28;20215;-77
2022/07/10 12:08:20;;;;;;;0.80;0.80;;;28.40;99.90;;;;;;4993202;28;20225;-76
2022/07/10 12:10:49;;;;;;;1.10;0.90;;;28.30;99.90;;;;;;4993292;28;20189;-77
2022/07/10 12:13:16;;;;;;;0.80;0.80;;;28.30;99.90;;;;;;4987470;28;20202;-76
2022/07/10 12:15:45;;;;;;;1.42;1.02;;;28.40;99.90;;;;;;4992028;28;20200;-77
2022/07/10 12:18:18;;;;;;;1.02;0.70;;;28.50;99.90;;;;;;4993170;28;20224;-77
2022/07/10 12:20:47;;;;;;;0.90;0.90;;;28.60;99.90;;;;;;4993322;28;20563;-77
2022/07/10 12:23:16;;;;;;;0.82;0.82;;;28.50;99.90;;;;;;4984773;28;20194;-76
2022/07/10 12:25:44;;;;;;;1.83;1.08;;;28.30;99.90;;;;;;4988689;28;20284;-78
2022/07/10 12:28:13;;;;;;;0.80;0.80;;;28.00;99.90;;;;;;4989209;28;20205;-78
2022/07/10 12:30:42;;;;;;;1.00;0.93;;;28.00;99.90;;;;;;4984637;28;20664;-77
2022/07/10 12:33:17;;;;;;;0.60;0.60;;;28.00;99.90;;;;;;4992694;28;20656;-76
2022/07/10 12:35:52;;;;;;;0.90;0.90;;;28.30;99.90;;;;;;4992695;28;20659;-78
2022/07/10 12:38:24;;;;;;;0.90;0.90;;;28.70;99.90;;;;;;4991482;28;20217;-76
2022/07/10 12:40:52;;;;;;;1.00;1.00;;;28.60;99.50;;;;;;4992322;28;20201;-77
2022/07/10 12:43:28;;;;;;;0.80;0.80;;;28.50;99.40;;;;;;4989463;28;20227;-76
2022/07/10 12:49:17;;;;;;;2.40;1.25;;;28.70;99.60;;;;;;4992232;28;20279;-77
2022/07/10 12:51:47;;;;;;;1.27;0.88;;;29.20;98.50;;;;;;4998893;28;20197;-78
2022/07/10 12:54:35;;;;;;;1.10;1.00;;;29.60;97.60;;;;;;4995353;28;20255;-76
2022/07/10 12:57:04;;;;;;;1.30;0.90;;;30.10;96.20;;;;;;4993480;28;20644;-77
2022/07/10 12:59:34;;;;;;;0.88;0.88;;;30.20;95.70;;;;;;4989658;28;20249;-77
2022/07/10 13:02:16;;;;;;;1.10;0.75;;;29.70;95.40;;;;;;4988780;28;20205;-77
2022/07/10 13:04:53;;;;;;;1.20;0.70;;;29.30;95.30;;;;;;4975261;28;20221;-76
2022/07/10 13:07:21;;;;;;;0.70;0.70;;;28.90;95.90;;;;;;4990564;28;20221;-78
2022/07/10 13:09:50;;;;;;;0.80;0.77;;;28.70;96.70;;;;;;4984299;28;20217;-77
2022/07/10 13:12:17;;;;;;;1.35;0.80;;;28.50;96.60;;;;;;4992801;28;20204;-77
2022/07/10 13:14:46;;;;;;;0.50;0.50;;;28.70;96.60;;;;;;4991948;28;20220;-77
2022/07/10 13:17:13;;;;;;;0.70;0.70;;;29.40;95.80;;;;;;4992653;28;20205;-76
2022/07/10 13:19:41;;;;;;;0.60;0.60;;;29.70;95.50;;;;;;4992497;28;20692;-76
2022/07/10 13:22:08;;;;;;;0.80;0.80;;;30.00;94.20;;;;;;4993115;28;20197;-76
2022/07/10 13:24:35;;;;;;;1.25;0.70;;;30.50;93.00;;;;;;4987114;28;20223;-76
2022/07/10 13:27:02;;;;;;;0.93;0.85;;;31.00;92.90;;;;;;4992914;28;20216;-77
2022/07/10 13:29:29;;;;;;;0.70;0.65;;;31.20;91.90;;;;;;4983267;28;20224;-77
2022/07/10 13:31:57;;;;;;;1.77;0.63;;;31.70;92.40;;;;;;4992831;28;20212;-77
2022/07/10 13:34:24;;;;;;;0.60;0.50;;;32.00;92.10;;;;;;4991390;28;20747;-78
2022/07/10 13:36:54;;;;;;;0.60;0.60;;;31.50;91.40;;;;;;4992680;28;20208;-78
2022/07/10 13:39:21;;;;;;;0.82;0.70;;;31.00;90.90;;;;;;4988769;28;20221;-78
2022/07/10 13:41:48;;;;;;;0.60;0.60;;;30.50;91.80;;;;;;4992591;28;20199;-77
2022/07/10 13:44:15;;;;;;;1.05;0.80;;;30.20;91.00;;;;;;5000337;28;20229;-76
2022/07/10 13:46:42;;;;;;;0.60;0.60;;;29.90;91.00;;;;;;4992840;28;20225;-78
2022/07/10 13:49:10;;;;;;;0.50;0.50;;;29.70;91.70;;;;;;4991961;28;20217;-76
2022/07/10 13:52:21;;;;;;;1.17;0.80;;;29.50;91.90;;;;;;4984870;28;20193;-77
2022/07/10 13:54:48;;;;;;;0.65;0.65;;;29.50;91.20;;;;;;4992732;28;20225;-77
2022/07/10 13:57:21;;;;;;;0.93;0.77;;;30.10;91.80;;;;;;4984786;28;20293;-77
2022/07/10 13:59:48;;;;;;;0.57;0.57;;;30.70;89.00;;;;;;4991920;28;20217;-78
2022/07/10 14:02:15;;;;;;;0.73;0.60;;;30.60;89.00;;;;;;4990143;28;20676;-80
2022/07/10 14:04:44;;;;;;;0.73;0.70;;;30.30;89.20;;;;;;4982470;28;20225;-78
2022/07/10 14:07:11;;;;;;;0.60;0.60;;;30.20;89.70;;;;;;4985212;28;20727;-77
2022/07/10 14:09:38;;;;;;;0.70;0.70;;;30.40;90.00;;;;;;4984736;28;20220;-76
2022/07/10 14:15:29;;;;;;;0.50;0.50;;;30.00;87.80;;;;;;4993632;28;20590;-78
2022/07/10 14:17:56;;;;;;;1.00;0.60;;;29.90;89.60;;;;;;4996185;28;20204;-77
2022/07/10 14:20:25;;;;;;;0.70;0.60;;;30.20;89.10;;;;;;4994941;28;20279;-77
2022/07/10 14:22:52;;;;;;;0.70;0.50;;;30.30;89.70;;;;;;5003133;28;20463;-77
2022/07/10 14:25:23;;;;;;;1.08;0.60;;;30.30;88.60;;;;;;4994097;28;20236;-77
2022/07/10 14:27:50;;;;;;;0.47;0.47;;;30.00;88.40;;;;;;4993348;28;20240;-76
2022/07/10 14:30:18;;;;;;;1.75;0.70;;;29.60;87.10;;;;;;4989498;28;20225;-78
2022/07/10 14:32:45;;;;;;;0.57;0.57;;;29.30;88.50;;;;;;4993891;28;20224;-77
2022/07/10 14:35:44;;;;;;;0.45;0.45;;;29.00;89.60;;;;;;4992707;28;20231;-80
2022/07/10 14:38:11;;;;;;;0.50;0.50;;;28.70;88.40;;;;;;4991628;28;20668;-76
2022/07/10 14:40:38;;;;;;;0.60;0.60;;;28.50;89.70;;;;;;4992009;28;20193;-76
2022/07/10 14:43:05;;;;;;;0.93;0.50;;;28.40;89.60;;;;;;5001203;28;20200;-76
2022/07/10 14:45:32;;;;;;;0.60;0.60;;;28.40;89.50;;;;;;4987237;28;20248;-76
2022/07/10 14:48:00;;;;;;;0.40;0.40;;;28.50;89.70;;;;;;4993134;28;20193;-77
2022/07/10 14:53:50;;;;;;;0.60;0.60;;;28.70;90.00;;;;;;4988143;28;20605;-77
2022/07/10 14:57:10;;;;;;;2.08;0.73;;;28.60;89.40;;;;;;4990517;28;20197;-77
2022/07/10 14:59:37;;;;;;;0.75;0.60;;;28.40;88.30;;;;;;4987905;28;20217;-77
2022/07/10 15:02:05;;;;;;;0.60;0.60;;;28.30;90.00;;;;;;5133620;23;20286;-77
2022/07/10 15:04:32;;;;;;;0.98;0.70;;;28.60;90.30;;;;;;5003536;28;20241;-75
2022/07/10 15:06:59;;;;;;;1.02;0.80;;;28.90;90.20;;;;;;5004165;28;20556;-75
2022/07/10 15:09:33;;;;;;;0.70;0.70;;;28.80;90.00;;;;;;5012034;28;20599;-75
2022/07/10 15:12:00;;;;;;;0.60;0.60;;;29.00;90.10;;;;;;5012359;28;20219;-75
2022/07/10 15:14:29;;;;;;;1.20;0.50;;;29.30;90.30;;;;;;5014957;28;20220;-75
2022/07/10 15:16:56;;;;;;;0.50;0.50;;;29.70;90.30;;;;;;5012512;28;20193;-75
2022/07/10 15:19:23;;;;;;;0.60;0.60;;;30.00;90.00;;;;;;5012190;28;20235;-77
2022/07/10 15:25:13;;;;;;;0.60;0.60;;;30.30;88.40;;;;;;5008973;28;20269;-76
2022/07/10 15:27:42;;;;;;;0.63;0.63;;;30.20;89.10;;;;;;5002870;28;20220;-75
2022/07/10 15:30:11;;;;;;;1.85;0.77;;;29.60;88.80;;;;;;5013721;28;20690;-75